Daihatsumaru — JD2764 — position and weather

sailwx.info

Track history (hours):
 
Tides and Currents Weather Stations Pressure Air Temp Water Temp Dewpoint Dewpoint Depression Visibility Wind Speed Wind Dir Waves Ship Positions

Daihatsumaru

Last reported at 2015-Jan-29 04:18 UTC. Time now 2015-Jan-30 17:00 UTC.
Position N 34°36' E 134°55'.

Length 106 m; draft 4.5 m.

Type: Cargo ship. MMSI: 431000701.

Date/timePositionNaut miles runAvg speedWind from/ knotsBaromVisibWave heightAir tempDewpointWater temp
2015-Jan-29 04:18N 34°36' E 134°55'1014.1
2015-Jan-29 03:33N 34°36' E 135°08'1413.5
2015-Jan-29 02:33N 34°41' E 135°23'0 0.0
2015-Jan-29 01:27N 34°41' E 135°23'0 0.0
2015-Jan-29 00:27N 34°41' E 135°23'0 0.0
2015-Jan-28 23:33N 34°41' E 135°23'2 2.0
2015-Jan-28 22:33N 34°40' E 135°21'1 0.7
2015-Jan-28 21:33N 34°40' E 135°21'0 0.3
2015-Jan-28 20:33N 34°40' E 135°20'1313.0
2015-Jan-28 19:33N 34°35' E 135°06'1211.6
2015-Jan-28 18:31N 34°34' E 134°51'2 0.1
2015-Jan-27 05:29N 34°35' E 134°52'1415.3
2015-Jan-27 04:33N 34°36' E 135°09'1312.7
2015-Jan-27 03:34N 34°41' E 135°23'0 0.1
2015-Jan-27 02:31N 34°41' E 135°23'0 0.0
2015-Jan-27 01:31N 34°41' E 135°23'0 0.0
2015-Jan-27 00:31N 34°41' E 135°23'0 0.0
2015-Jan-26 23:31N 34°41' E 135°23'2 2.3
2015-Jan-26 22:33N 34°40' E 135°21'0 0.2
2015-Jan-26 21:31N 34°40' E 135°21'0 0.0
2015-Jan-26 20:32N 34°40' E 135°21'1211.8
2015-Jan-26 19:33N 34°35' E 135°09'1513.5
2015-Jan-26 18:28N 34°34' E 134°51'  
2015-Jan-24 04:33N 34°37' E 134°58'1514.8
2015-Jan-24 03:33N 34°37' E 135°16'7 7.1
2015-Jan-24 02:34N 34°41' E 135°23'0 0.0
2015-Jan-24 01:29N 34°41' E 135°23'0 0.0
2015-Jan-24 00:29N 34°41' E 135°23'0 0.0
2015-Jan-23 23:29N 34°41' E 135°23'2 2.2
2015-Jan-23 22:34N 34°40' E 135°21'1 0.6
2015-Jan-23 21:25N 34°40' E 135°21'0 0.0
2015-Jan-23 20:31N 34°40' E 135°21'3 2.9
2015-Jan-23 19:33N 34°38' E 135°18'1514.6
2015-Jan-23 18:33N 34°37' E 135°01'1 0.0
2015-Jan-22 04:33N 34°37' E 135°02'1414.4
2015-Jan-22 03:33N 34°39' E 135°19'4 4.4
2015-Jan-22 02:33N 34°41' E 135°23'0 0.0
2015-Jan-22 01:25N 34°41' E 135°23'0 0.0
2015-Jan-22 00:25N 34°41' E 135°23'0 0.0
2015-Jan-21 23:19N 34°41' E 135°23'0 0.4
2015-Jan-21 22:50N 34°41' E 135°23'0 6.0
2015-Jan-21 22:46N 34°41' E 135°23'2 7.9
2015-Jan-21 22:33N 34°40' E 135°21'0 0.3
2015-Jan-21 21:21N 34°40' E 135°21'0 0.0
2015-Jan-21 20:21N 34°40' E 135°21'0 0.0
2015-Jan-21 19:33N 34°40' E 135°21'1111.1
2015-Jan-21 18:33N 34°35' E 135°09'1716.6
2015-Jan-21 17:31N 34°33' E 134°48'15 0.4
2015-Jan-20 04:34N 34°36' E 135°05'1514.7
2015-Jan-20 03:33N 34°41' E 135°22'1 0.8
2015-Jan-20 02:19N 34°41' E 135°23'0 0.0
2015-Jan-20 01:07N 34°41' E 135°23'0 0.0
2015-Jan-20 00:19N 34°41' E 135°23'0 0.0
2015-Jan-19 23:31N 34°41' E 135°23'2 1.6
2015-Jan-19 22:33N 34°40' E 135°22'1 1.0
2015-Jan-19 21:31N 34°40' E 135°21'0 0.0
2015-Jan-19 20:31N 34°40' E 135°21'0 0.1
2015-Jan-19 19:34N 34°40' E 135°21'1313.2
2015-Jan-19 18:33N 34°34' E 135°06'  
Track history (hours):
 
Tides and Currents Weather Stations Pressure Air Temp Water Temp Dewpoint Dewpoint Depression Visibility Wind Speed Wind Dir Waves Ship Positions

Daihatsumaru

Last reported at 2015-Jan-29 04:18 UTC. Time now 2015-Jan-30 17:00 UTC.
Position N 34°36' E 134°55'.

Length 106 m; draft 4.5 m.

Type: Cargo ship. MMSI: 431000701.

Date/timePositionNaut miles runAvg speedWind from/ knotsBaromVisibWave heightAir tempDewpointWater temp
2015-Jan-29 04:18N 34°36' E 134°55'1014.1
2015-Jan-29 03:33N 34°36' E 135°08'1413.5
2015-Jan-29 02:33N 34°41' E 135°23'0 0.0
2015-Jan-29 01:27N 34°41' E 135°23'0 0.0
2015-Jan-29 00:27N 34°41' E 135°23'0 0.0
2015-Jan-28 23:33N 34°41' E 135°23'2 2.0
2015-Jan-28 22:33N 34°40' E 135°21'1 0.7
2015-Jan-28 21:33N 34°40' E 135°21'0 0.3
2015-Jan-28 20:33N 34°40' E 135°20'1313.0
2015-Jan-28 19:33N 34°35' E 135°06'1211.6
2015-Jan-28 18:31N 34°34' E 134°51'2 0.1
2015-Jan-27 05:29N 34°35' E 134°52'1415.3
2015-Jan-27 04:33N 34°36' E 135°09'1312.7
2015-Jan-27 03:34N 34°41' E 135°23'0 0.1
2015-Jan-27 02:31N 34°41' E 135°23'0 0.0
2015-Jan-27 01:31N 34°41' E 135°23'0 0.0
2015-Jan-27 00:31N 34°41' E 135°23'0 0.0
2015-Jan-26 23:31N 34°41' E 135°23'2 2.3
2015-Jan-26 22:33N 34°40' E 135°21'0 0.2
2015-Jan-26 21:31N 34°40' E 135°21'0 0.0
2015-Jan-26 20:32N 34°40' E 135°21'1211.8
2015-Jan-26 19:33N 34°35' E 135°09'1513.5
2015-Jan-26 18:28N 34°34' E 134°51'  
2015-Jan-24 04:33N 34°37' E 134°58'1514.8
2015-Jan-24 03:33N 34°37' E 135°16'7 7.1
2015-Jan-24 02:34N 34°41' E 135°23'0 0.0
2015-Jan-24 01:29N 34°41' E 135°23'0 0.0
2015-Jan-24 00:29N 34°41' E 135°23'0 0.0
2015-Jan-23 23:29N 34°41' E 135°23'2 2.2
2015-Jan-23 22:34N 34°40' E 135°21'1 0.6
2015-Jan-23 21:25N 34°40' E 135°21'0 0.0
2015-Jan-23 20:31N 34°40' E 135°21'3 2.9
2015-Jan-23 19:33N 34°38' E 135°18'1514.6
2015-Jan-23 18:33N 34°37' E 135°01'1 0.0
2015-Jan-22 04:33N 34°37' E 135°02'1414.4
2015-Jan-22 03:33N 34°39' E 135°19'4 4.4
2015-Jan-22 02:33N 34°41' E 135°23'0 0.0
2015-Jan-22 01:25N 34°41' E 135°23'0 0.0
2015-Jan-22 00:25N 34°41' E 135°23'0 0.0
2015-Jan-21 23:19N 34°41' E 135°23'0 0.4
2015-Jan-21 22:50N 34°41' E 135°23'0 6.0
2015-Jan-21 22:46N 34°41' E 135°23'2 7.9
2015-Jan-21 22:33N 34°40' E 135°21'0 0.3
2015-Jan-21 21:21N 34°40' E 135°21'0 0.0
2015-Jan-21 20:21N 34°40' E 135°21'0 0.0
2015-Jan-21 19:33N 34°40' E 135°21'1111.1
2015-Jan-21 18:33N 34°35' E 135°09'1716.6
2015-Jan-21 17:31N 34°33' E 134°48'15 0.4
2015-Jan-20 04:34N 34°36' E 135°05'1514.7
2015-Jan-20 03:33N 34°41' E 135°22'1 0.8
2015-Jan-20 02:19N 34°41' E 135°23'0 0.0
2015-Jan-20 01:07N 34°41' E 135°23'0 0.0
2015-Jan-20 00:19N 34°41' E 135°23'0 0.0
2015-Jan-19 23:31N 34°41' E 135°23'2 1.6
2015-Jan-19 22:33N 34°40' E 135°22'1 1.0
2015-Jan-19 21:31N 34°40' E 135°21'0 0.0
2015-Jan-19 20:31N 34°40' E 135°21'0 0.1
2015-Jan-19 19:34N 34°40' E 135°21'1313.2
2015-Jan-19 18:33N 34°34' E 135°06'  

Dump ship's entire track history